Time;durP1;ratioP1;P1;durP2;ratioP2;P2;SDS_P1;SDS_P2;PMS_P1;PMS_P2;Temp;Humidity;BMP_temperature;BMP_pressure;BME280_temperature;BME280_humidity;BME280_pressure;Samples;Min_cycle;Max_cycle;Signal;HPM_P1;HPM_P2
2023/12/27 00:01:34;;;;;;;5.70;1.82;;;;;;;5.83;85.14;99601.46;1672150;85;25645;-51
2023/12/27 00:04:00;;;;;;;4.85;1.30;;;;;;;5.83;85.23;99593.41;1672126;85;27345;-51
2023/12/27 00:06:26;;;;;;;3.75;1.98;;;;;;;5.82;85.01;99604.67;1671496;85;26073;-50
2023/12/27 00:08:53;;;;;;;14.90;9.50;;;;;;;5.82;85.20;99607.91;1672209;85;25496;-53
2023/12/27 00:11:19;;;;;;;4.00;1.72;;;;;;;5.83;85.27;99609.52;1672150;85;25577;-49
2023/12/27 00:13:46;;;;;;;2.00;1.35;;;;;;;5.84;85.15;99607.06;1672137;85;25661;-49
2023/12/27 00:16:12;;;;;;;2.72;1.00;;;;;;;5.83;85.09;99612.98;1648742;85;26872;-49
2023/12/27 00:18:38;;;;;;;1.70;0.90;;;;;;;5.81;84.87;99612.48;1672032;85;25609;-49
2023/12/27 00:21:05;;;;;;;4.45;1.05;;;;;;;5.78;84.82;99620.56;1672097;85;25425;-50
2023/12/27 00:23:32;;;;;;;1.45;0.98;;;;;;;5.75;84.68;99621.14;1672070;85;25993;-49
2023/12/27 00:25:59;;;;;;;2.10;0.90;;;;;;;5.72;84.82;99625.78;1648900;85;25643;-52
2023/12/27 00:28:26;;;;;;;2.58;1.05;;;;;;;5.69;84.77;99639.77;1672086;85;27733;-49
2023/12/27 00:30:53;;;;;;;3.30;1.30;;;;;;;5.66;84.20;99634.98;1672018;85;25691;-48
2023/12/27 00:33:20;;;;;;;2.15;1.20;;;;;;;5.62;84.39;99646.06;1672103;85;25507;-50
2023/12/27 00:35:47;;;;;;;3.72;1.00;;;;;;;5.58;84.14;99655.77;1670846;85;25929;-50
2023/12/27 00:38:14;;;;;;;2.25;1.12;;;;;;;5.52;83.55;99660.41;1670805;85;25737;-50
2023/12/27 00:40:40;;;;;;;2.92;1.00;;;;;;;5.48;83.58;99679.50;1671796;85;26899;-49
2023/12/27 00:43:06;;;;;;;2.15;1.15;;;;;;;5.43;83.32;99681.73;1672009;85;25560;-50
2023/12/27 00:45:33;;;;;;;1.90;1.00;;;;;;;5.39;83.29;99682.59;1672081;85;25598;-51
2023/12/27 00:48:00;;;;;;;1.98;1.12;;;;;;;5.36;83.26;99689.34;1671416;85;25987;-48
2023/12/27 00:50:26;;;;;;;2.27;1.45;;;;;;;5.35;83.04;99692.31;1624442;85;25693;-49
2023/12/27 00:52:53;;;;;;;3.10;1.15;;;;;;;5.34;83.16;99699.54;1678815;84;27921;-50
2023/12/27 00:55:21;;;;;;;2.92;1.00;;;;;;;5.34;83.24;99692.05;1699775;84;25602;-50
2023/12/27 00:57:47;;;;;;;1.92;0.90;;;;;;;5.33;82.90;99699.30;1699808;84;25599;-50
2023/12/27 01:00:16;;;;;;;2.35;1.32;;;;;;;5.32;82.50;99707.08;1699771;84;25726;-52
2023/12/27 01:02:43;;;;;;;2.17;0.98;;;;;;;5.32;81.78;99706.30;1700022;84;25427;-50
2023/12/27 01:05:10;;;;;;;3.72;1.02;;;;;;;5.30;81.50;99721.88;1699825;84;27307;-50
2023/12/27 01:07:36;;;;;;;3.10;1.00;;;;;;;5.26;81.08;99716.81;1699723;84;25614;-48
2023/12/27 01:10:07;;;;;;;2.15;0.98;;;;;;;5.22;81.21;99729.45;1699823;84;25576;-50
2023/12/27 01:12:33;;;;;;;1.00;0.80;;;;;;;5.18;80.76;99735.14;1699748;84;26351;-50
2023/12/27 01:15:00;;;;;;;1.85;0.72;;;;;;;5.14;79.39;99733.31;1699839;84;25603;-50
2023/12/27 01:17:27;;;;;;;4.67;1.10;;;;;;;5.10;79.76;99744.36;1699809;84;28321;-49
2023/12/27 01:19:54;;;;;;;1.45;0.88;;;;;;;5.06;79.67;99740.11;1699625;84;25965;-50
2023/12/27 01:22:20;;;;;;;3.98;1.05;;;;;;;5.02;79.35;99739.89;1699772;84;25646;-49
2023/12/27 01:24:47;;;;;;;3.05;1.00;;;;;;;5.03;79.76;99752.19;1673716;84;26261;-52
2023/12/27 01:27:13;;;;;;;1.95;1.05;;;;;;;5.01;78.69;99757.05;1699805;84;25691;-49
2023/12/27 01:29:39;;;;;;;1.27;1.05;;;;;;;5.02;78.62;99765.88;1673705;84;27338;-49
2023/12/27 01:32:07;;;;;;;2.52;1.00;;;;;;;5.03;79.05;99774.98;1699695;84;25628;-49
2023/12/27 01:34:38;;;;;;;3.05;1.50;;;;;;;5.05;79.02;99767.99;1699784;84;25573;-49
2023/12/27 01:37:05;;;;;;;5.35;1.40;;;;;;;5.05;79.04;99778.72;1699763;84;25634;-49
2023/12/27 01:39:31;;;;;;;3.42;1.20;;;;;;;5.04;79.04;99769.88;1699766;84;25519;-52
2023/12/27 01:41:58;;;;;;;3.77;1.25;;;;;;;5.04;79.12;99775.80;1673730;84;28045;-50
2023/12/27 01:44:24;;;;;;;6.17;1.65;;;;;;;5.04;79.00;99785.17;1673629;84;25655;-50
2023/12/27 01:46:51;;;;;;;2.42;1.30;;;;;;;5.05;79.19;99774.70;1673806;84;25688;-50
2023/12/27 01:49:18;;;;;;;2.92;1.50;;;;;;;5.04;78.97;99787.31;1699744;84;26198;-50
2023/12/27 01:51:45;;;;;;;4.45;1.40;;;;;;;5.05;79.13;99798.27;1699794;84;25638;-50
2023/12/27 01:54:14;;;;;;;3.12;1.82;;;;;;;5.04;78.79;99795.91;1642768;85;27339;-49
2023/12/27 01:56:44;;;;;;;5.30;1.62;;;;;;;5.05;79.16;99799.61;1647264;87;33540;-51
2023/12/27 01:59:14;;;;;;;1.92;1.47;;;;;;;5.19;78.98;99826.58;1688858;85;25561;-51
2023/12/27 02:01:40;;;;;;;3.52;1.60;;;;;;;5.04;78.46;99810.64;1647370;87;25679;-50
2023/12/27 02:04:06;;;;;;;2.50;1.98;;;;;;;5.06;78.49;99824.56;1688963;85;25586;-49
2023/12/27 02:06:34;;;;;;;4.30;1.42;;;;;;;5.04;78.63;99821.37;1647225;87;27966;-48
2023/12/27 02:09:00;;;;;;;4.33;1.70;;;;;;;5.05;78.53;99840.37;1688796;85;25650;-52
2023/12/27 02:11:27;;;;;;;4.78;1.90;;;;;;;5.03;77.59;99817.08;1624337;87;25708;-48
2023/12/27 02:13:53;;;;;;;2.70;1.77;;;;;;;5.02;78.10;99818.97;1674597;85;25419;-53
2023/12/27 02:16:21;;;;;;;3.22;1.70;;;;;;;5.00;77.75;99821.11;1688932;85;25668;-50
2023/12/27 02:18:50;;;;;;;3.00;1.40;;;;;;;4.97;77.89;99827.58;1647382;87;26901;-52
2023/12/27 02:21:18;;;;;;;1.85;1.57;;;;;;;4.93;77.98;99828.69;1674741;85;25741;-49
2023/12/27 02:23:49;;;;;;;3.62;1.77;;;;;;;4.87;77.70;99813.75;1688915;85;25654;-51
2023/12/27 02:26:15;;;;;;;2.52;1.45;;;;;;;4.83;77.61;99822.08;1647257;87;25632;-51
2023/12/27 02:28:43;;;;;;;2.55;1.90;;;;;;;4.77;77.46;99830.72;1650913;85;25629;-51
2023/12/27 02:31:10;;;;;;;2.62;1.32;;;;;;;4.73;77.52;99832.89;1689957;84;27343;-50
2023/12/27 02:33:36;;;;;;;1.57;1.45;;;;;;;4.68;77.56;99832.38;1624230;87;25682;-50
2023/12/27 02:36:04;;;;;;;2.08;1.27;;;;;;;4.64;77.79;99830.81;1650503;85;25457;-50
2023/12/27 02:38:31;;;;;;;3.65;1.70;;;;;;;4.60;77.82;99838.37;1688852;85;26211;-49
2023/12/27 02:40:59;;;;;;;3.27;1.57;;;;;;;4.57;78.08;99842.39;1647235;87;25494;-49
2023/12/27 02:43:25;;;;;;;2.27;1.67;;;;;;;4.56;78.21;99837.31;1688964;85;27480;-49
2023/12/27 02:45:52;;;;;;;1.40;1.30;;;;;;;4.55;78.37;99839.75;1647159;87;25848;-49
2023/12/27 02:48:20;;;;;;;2.37;1.45;;;;;;;4.54;78.68;99854.20;1674617;85;25431;-50
2023/12/27 02:50:46;;;;;;;1.57;1.20;;;;;;;4.53;78.66;99857.43;1688836;85;25841;-50
2023/12/27 02:53:12;;;;;;;1.67;1.40;;;;;;;4.52;78.69;99861.17;1624571;86;25477;-48
2023/12/27 02:55:38;;;;;;;1.35;1.10;;;;;;;4.50;78.85;99874.05;1699935;84;27209;-49
2023/12/27 02:58:05;;;;;;;2.10;1.52;;;;;;;4.47;78.76;99859.33;1699804;84;25663;-48
2023/12/27 03:00:37;;;;;;;3.45;1.45;;;;;;;4.44;78.77;99879.17;1699844;84;25632;-49
2023/12/27 03:03:03;;;;;;;;;;;;;;;4.42;78.81;99858.02;1702287;84;26677;-49
2023/12/27 03:05:30;;;;;;;2.45;1.30;;;;;;;4.40;79.04;99869.56;1685807;84;25671;-49
2023/12/27 03:07:58;;;;;;;1.82;1.40;;;;;;;4.37;79.03;99866.64;1699864;84;27690;-49
2023/12/27 03:10:25;;;;;;;2.67;1.17;;;;;;;4.33;78.58;99871.75;1699763;84;25462;-49
2023/12/27 03:12:52;;;;;;;1.67;1.07;;;;;;;4.29;78.62;99884.89;1699952;84;25461;-49
2023/12/27 03:15:19;;;;;;;2.25;1.30;;;;;;;4.27;78.48;99888.91;1699827;84;26169;-50
2023/12/27 03:17:46;;;;;;;2.02;1.15;;;;;;;4.22;78.57;99883.06;1699895;84;25572;-49
2023/12/27 03:20:13;;;;;;;2.10;1.30;;;;;;;4.18;78.27;99886.02;1673725;84;27361;-49
2023/12/27 03:22:41;;;;;;;2.00;1.10;;;;;;;4.12;78.13;99884.46;1699764;84;25642;-49
2023/12/27 03:25:08;;;;;;;1.72;1.12;;;;;;;4.07;78.31;99877.25;1699860;84;25475;-49
2023/12/27 03:27:36;;;;;;;2.22;1.10;;;;;;;4.03;78.22;99884.21;1699826;84;26685;-48
2023/12/27 03:30:05;;;;;;;2.95;1.10;;;;;;;3.99;78.28;99893.09;1673755;84;25497;-48
2023/12/27 03:32:32;;;;;;;2.65;1.00;;;;;;;3.95;78.16;99902.20;1699982;84;27347;-51
2023/12/27 03:34:59;;;;;;;3.15;0.90;;;;;;;3.90;78.38;99899.55;1699743;84;25430;-49
2023/12/27 03:37:25;;;;;;;3.05;1.10;;;;;;;3.87;78.39;99896.87;1699848;84;25509;-49
2023/12/27 03:39:53;;;;;;;4.15;0.78;;;;;;;3.84;78.48;99910.79;1673775;84;25616;-50
2023/12/27 03:42:20;;;;;;;1.20;1.10;;;;;;;3.80;78.28;99914.27;1673871;84;25685;-49
2023/12/27 03:44:52;;;;;;;3.08;0.82;;;;;;;3.76;78.37;99923.38;1673826;84;27430;-49
2023/12/27 03:47:17;;;;;;;3.90;1.10;;;;;;;3.72;78.44;99921.80;1699075;84;28931;-49
2023/12/27 03:49:44;;;;;;;3.42;1.05;;;;;;;3.69;78.54;99932.23;1673949;84;25630;-49
2023/12/27 03:52:11;;;;;;;5.47;1.50;;;;;;;3.69;78.53;99933.58;1699815;84;25674;-49
2023/12/27 03:54:43;;;;;;;3.60;1.65;;;;;;;3.67;78.54;99955.25;1699740;84;25655;-50
2023/12/27 03:57:11;;;;;;;9.18;1.57;;;;;;;3.70;78.83;99931.97;1699842;84;28088;-49
2023/12/27 03:59:39;;;;;;;2.85;1.20;;;;;;;3.72;79.04;99941.06;1699719;84;26187;-50
2023/12/27 04:02:05;;;;;;;4.22;1.30;;;;;;;3.74;79.07;99950.95;1699838;84;25499;-52
2023/12/27 04:04:33;;;;;;;2.02;1.30;;;;;;;3.77;79.04;99946.95;1699788;84;25564;-50
2023/12/27 04:07:01;;;;;;;5.28;1.72;;;;;;;3.79;79.12;99960.30;1699843;84;25483;-50
2023/12/27 04:09:28;;;;;;;2.70;1.20;;;;;;;3.80;78.99;99951.22;1674168;84;28270;-50
2023/12/27 04:11:58;;;;;;;5.97;1.80;;;;;;;3.81;78.68;99958.69;1699730;84;25880;-49
2023/12/27 04:14:24;;;;;;;5.10;1.40;;;;;;;3.82;79.18;99958.97;1699806;84;25584;-49
2023/12/27 04:16:51;;;;;;;3.37;1.30;;;;;;;3.84;79.12;99958.16;1699793;84;25615;-49
2023/12/27 04:19:18;;;;;;;7.42;2.30;;;;;;;3.85;79.23;99962.45;1673905;84;25600;-49
2023/12/27 04:21:47;;;;;;;2.33;1.27;;;;;;;3.86;79.04;99965.37;1699752;84;28367;-50
2023/12/27 04:24:13;;;;;;;4.08;1.32;;;;;;;3.86;79.14;99972.05;1699730;84;25720;-50
2023/12/27 04:26:42;;;;;;;4.33;1.42;;;;;;;3.87;79.18;99969.66;1699800;84;25489;-48
2023/12/27 04:29:11;;;;;;;4.08;1.45;;;;;;;3.88;79.25;99980.61;1699895;84;25610;-50
2023/12/27 04:31:39;;;;;;;3.27;1.32;;;;;;;3.87;79.41;99971.79;1673908;84;25680;-50
2023/12/27 04:34:07;;;;;;;4.50;1.60;;;;;;;3.86;79.57;99979.54;1700038;84;27899;-50
2023/12/27 04:36:36;;;;;;;3.80;1.60;;;;;;;3.87;79.71;99986.50;1699734;84;25875;-50
2023/12/27 04:39:04;;;;;;;5.90;1.33;;;;;;;3.87;79.81;99988.39;1700048;84;25648;-49
2023/12/27 04:41:31;;;;;;;6.03;1.10;;;;;;;3.85;79.82;99981.97;1700086;84;25685;-50
2023/12/27 04:44:00;;;;;;;3.12;0.90;;;;;;;3.84;80.00;99992.39;1700072;84;25598;-49
2023/12/27 04:46:27;;;;;;;3.47;1.33;;;;;;;3.82;80.16;99999.11;1700075;84;27923;-52
2023/12/27 04:48:55;;;;;;;3.12;1.10;;;;;;;3.82;80.27;100003.12;1673664;84;25709;-49
2023/12/27 04:51:23;;;;;;;6.60;1.15;;;;;;;3.81;80.33;99998.83;1699876;84;25439;-50
2023/12/27 04:53:50;;;;;;;2.65;1.00;;;;;;;3.80;80.50;100007.40;1697746;84;25702;-49
2023/12/27 04:56:18;;;;;;;3.27;1.20;;;;;;;3.80;80.65;100010.08;1671568;85;25430;-52
2023/12/27 04:58:45;;;;;;;3.62;1.35;;;;;;;3.80;80.46;99998.55;1626632;88;27361;-47
2023/12/27 05:01:18;;;;;;;5.97;1.47;;;;;;;3.78;80.61;100008.21;1672012;85;25704;-50
2023/12/27 05:03:46;;;;;;;3.90;1.25;;;;;;;3.79;80.66;100017.83;1626080;88;25494;-48
2023/12/27 05:06:16;;;;;;;3.25;1.20;;;;;;;3.79;80.63;100019.70;1648980;85;25641;-47
2023/12/27 05:08:44;;;;;;;3.30;1.25;;;;;;;3.79;80.37;100017.83;1648965;85;25464;-48
2023/12/27 05:11:21;;;;;;;3.95;1.20;;;;;;;3.79;80.31;100022.38;1626758;88;28260;-48
2023/12/27 05:13:49;;;;;;;4.47;1.10;;;;;;;3.78;80.33;100016.23;1674451;85;25669;-47
2023/12/27 05:16:19;;;;;;;5.33;1.47;;;;;;;3.79;80.36;100017.03;1674510;85;25511;-48
2023/12/27 05:18:46;;;;;;;4.97;1.40;;;;;;;3.80;80.28;100027.98;1674465;85;26151;-47
2023/12/27 05:21:18;;;;;;;4.58;1.50;;;;;;;3.81;80.23;100016.22;1650816;85;25514;-49
2023/12/27 05:23:46;;;;;;;5.30;1.45;;;;;;;3.81;79.95;100033.61;1674527;85;27962;-50
2023/12/27 05:26:12;;;;;;;7.97;1.70;;;;;;;3.82;80.17;100033.89;1674373;85;25680;-47
2023/12/27 05:28:40;;;;;;;5.10;1.20;;;;;;;3.83;80.14;100027.45;1674528;85;25677;-47
2023/12/27 05:31:08;;;;;;;5.47;1.20;;;;;;;3.84;80.19;100054.48;1674578;85;25677;-48
2023/12/27 05:33:36;;;;;;;5.12;1.37;;;;;;;3.83;80.30;100046.17;1674519;85;25599;-47
2023/12/27 05:36:05;;;;;;;2.35;1.40;;;;;;;3.84;80.02;100053.14;1674497;85;27212;-48
2023/12/27 05:38:33;;;;;;;;;;;;;;;3.84;80.21;100053.94;1676944;85;25445;-48
2023/12/27 05:41:00;;;;;;;10.68;3.45;;;;;;;3.85;79.77;100058.77;1674485;85;25605;-49
2023/12/27 05:43:27;;;;;;;2.90;1.10;;;;;;;3.84;80.14;100071.33;1673646;85;25635;-48
2023/12/27 05:45:54;;;;;;;4.30;1.20;;;;;;;3.87;80.09;100072.13;1674525;85;25593;-49
2023/12/27 05:48:21;;;;;;;9.68;1.60;;;;;;;3.88;79.99;100059.55;1674486;85;28396;-48
2023/12/27 05:50:47;;;;;;;5.95;1.65;;;;;;;3.88;80.13;100083.11;1650750;85;25684;-49
2023/12/27 05:53:14;;;;;;;4.50;1.50;;;;;;;3.89;80.11;100081.23;1650807;85;25709;-51
2023/12/27 05:55:41;;;;;;;6.90;1.62;;;;;;;3.89;79.90;100078.55;1671090;85;25550;-49
2023/12/27 05:58:08;;;;;;;3.62;1.30;;;;;;;3.90;80.06;100090.88;1628520;86;25477;-49
2023/12/27 06:00:34;;;;;;;6.10;1.45;;;;;;;3.90;80.13;100102.38;1628382;86;27724;-48
2023/12/27 06:03:02;;;;;;;9.30;1.50;;;;;;;3.91;80.08;100092.46;1672467;85;25979;-48
2023/12/27 06:05:29;;;;;;;6.55;1.50;;;;;;;3.91;80.25;100105.30;1672501;85;25508;-48
2023/12/27 06:07:56;;;;;;;6.28;1.62;;;;;;;3.92;79.68;100108.25;1621995;86;26217;-49
2023/12/27 06:10:23;;;;;;;5.53;1.30;;;;;;;3.93;80.02;100110.38;1628458;86;25665;-48
2023/12/27 06:12:52;;;;;;;4.05;1.77;;;;;;;3.92;80.02;100116.28;1651118;85;27679;-50
2023/12/27 06:15:18;;;;;;;4.53;1.37;;;;;;;3.92;80.10;100119.50;1650826;86;25612;-48
2023/12/27 06:17:45;;;;;;;4.20;1.70;;;;;;;3.91;80.27;100128.59;1653311;86;26083;-50
2023/12/27 06:20:12;;;;;;;4.80;1.92;;;;;;;3.92;80.29;100139.57;1671457;85;25755;-51
2023/12/27 06:22:38;;;;;;;3.52;1.15;;;;;;;3.92;80.31;100139.03;1672504;85;25515;-48
2023/12/27 06:25:08;;;;;;;4.17;1.27;;;;;;;3.94;80.21;100149.47;1672568;85;27281;-51
2023/12/27 06:27:35;;;;;;;;;;;;;;;3.93;80.02;100127.78;1655680;86;25787;-53
2023/12/27 06:30:05;;;;;;;6.50;1.37;;;;;;;3.93;79.98;100141.16;1672571;85;25545;-50
2023/12/27 06:32:31;;;;;;;10.48;1.92;;;;;;;3.91;79.87;100152.67;1669979;85;25613;-53
2023/12/27 06:34:57;;;;;;;4.60;1.22;;;;;;;3.91;80.08;100160.70;1602592;88;25644;-49
2023/12/27 06:37:23;;;;;;;4.58;1.15;;;;;;;3.90;79.95;100160.45;1626591;88;27371;-49
2023/12/27 06:39:49;;;;;;;7.35;1.40;;;;;;;3.91;79.95;100170.06;1671940;85;25678;-50
2023/12/27 06:42:16;;;;;;;7.97;1.62;;;;;;;3.89;80.14;100181.03;1646346;86;25577;-49
2023/12/27 06:44:42;;;;;;;6.28;1.45;;;;;;;3.89;80.12;100181.03;1653288;86;25603;-48
2023/12/27 06:47:09;;;;;;;3.83;1.85;;;;;;;3.90;80.10;100179.98;1672654;85;25437;-49
2023/12/27 06:49:35;;;;;;;4.00;1.62;;;;;;;3.90;80.06;100190.69;1653409;86;28395;-49
2023/12/27 06:52:04;;;;;;;9.48;2.02;;;;;;;3.90;80.08;100196.58;1672557;85;25606;-49
2023/12/27 06:54:31;;;;;;;3.87;1.52;;;;;;;3.90;79.58;100203.27;1655185;85;33698;-48
2023/12/27 06:56:59;;;;;;;8.03;1.90;;;;;;;3.88;79.90;100200.86;1674613;85;26198;-50
2023/12/27 06:59:27;;;;;;;8.95;1.87;;;;;;;3.88;79.87;100217.42;1674633;85;25428;-50
2023/12/27 07:01:54;;;;;;;5.85;2.22;;;;;;;3.85;79.57;100210.75;1674571;85;27820;-50
2023/12/27 07:04:22;;;;;;;6.12;2.62;;;;;;;3.86;79.70;100219.57;1674529;85;25833;-52
2023/12/27 07:06:48;;;;;;;3.87;2.15;;;;;;;3.83;79.75;100205.38;1626640;85;25533;-49
2023/12/27 07:09:17;;;;;;;7.78;1.82;;;;;;;3.81;79.81;100211.53;1674631;85;25629;-49
2023/12/27 07:11:46;;;;;;;5.75;1.60;;;;;;;3.77;79.80;100220.63;1674684;85;25599;-50
2023/12/27 07:14:13;;;;;;;4.55;2.02;;;;;;;3.72;79.81;100232.12;1674562;85;28304;-49
2023/12/27 07:16:40;;;;;;;7.70;1.90;;;;;;;3.68;79.95;100237.73;1674473;85;25775;-49
2023/12/27 07:19:08;;;;;;;8.73;2.08;;;;;;;3.67;80.04;100245.48;1674605;85;25460;-49
2023/12/27 07:21:34;;;;;;;7.35;1.82;;;;;;;3.67;80.15;100250.03;1674446;85;25621;-49
2023/12/27 07:24:05;;;;;;;5.42;1.55;;;;;;;3.67;80.28;100268.77;1651219;85;25504;-49
2023/12/27 07:26:31;;;;;;;4.35;1.55;;;;;;;3.67;80.54;100276.25;1673770;85;28025;-48
2023/12/27 07:28:57;;;;;;;8.78;2.15;;;;;;;3.70;80.53;100280.28;1674453;85;25571;-49
2023/12/27 07:31:25;;;;;;;6.10;2.35;;;;;;;3.71;80.55;100282.70;1674529;85;25647;-48
2023/12/27 07:33:51;;;;;;;7.42;2.17;;;;;;;3.73;80.68;100289.92;1674534;85;25679;-48
2023/12/27 07:36:18;;;;;;;4.15;1.90;;;;;;;3.75;80.48;100291.00;1650926;85;25619;-48
2023/12/27 07:38:45;;;;;;;10.95;1.90;;;;;;;3.76;80.41;100297.14;1674560;85;28269;-49
2023/12/27 07:41:12;;;;;;;7.55;3.08;;;;;;;3.74;80.24;100304.89;1673600;85;25527;-50
2023/12/27 07:43:41;;;;;;;5.03;2.35;;;;;;;3.76;80.17;100313.20;1674513;85;25589;-49
2023/12/27 07:46:09;;;;;;;8.33;2.15;;;;;;;3.76;80.12;100325.23;1650992;85;26010;-48
2023/12/27 07:48:35;;;;;;;8.55;1.70;;;;;;;3.77;79.92;100325.52;1674516;85;25648;-48
2023/12/27 07:51:03;;;;;;;7.03;1.90;;;;;;;3.76;79.90;100322.02;1674538;85;27307;-48
2023/12/27 07:53:33;;;;;;;8.28;1.80;;;;;;;3.77;79.73;100318.28;1673711;85;25725;-49
2023/12/27 07:56:01;;;;;;;7.37;1.90;;;;;;;3.78;79.77;100319.91;1676527;85;25657;-47
2023/12/27 07:58:27;;;;;;;5.00;1.52;;;;;;;3.79;79.30;100342.11;1677916;85;25927;-49
2023/12/27 08:00:53;;;;;;;8.05;2.47;;;;;;;3.80;79.13;100332.48;1677927;85;25448;-49
2023/12/27 08:03:20;;;;;;;5.55;1.80;;;;;;;3.81;79.12;100339.42;1677972;85;27280;-49
2023/12/27 08:05:46;;;;;;;11.38;2.08;;;;;;;3.84;79.09;100341.58;1677855;85;25443;-50
2023/12/27 08:08:12;;;;;;;9.60;2.37;;;;;;;3.86;79.18;100333.30;1677958;85;25652;-47
2023/12/27 08:10:38;;;;;;;6.22;1.90;;;;;;;3.89;79.21;100360.33;1677912;85;25537;-47
2023/12/27 08:13:07;;;;;;;8.35;2.00;;;;;;;3.93;79.52;100364.11;1697311;84;25636;-49
2023/12/27 08:15:35;;;;;;;7.92;1.77;;;;;;;3.96;79.22;100366.78;1699858;84;27683;-49
2023/12/27 08:18:04;;;;;;;7.87;1.95;;;;;;;3.98;78.68;100375.89;1699738;84;25498;-49
2023/12/27 08:20:32;;;;;;;9.65;2.00;;;;;;;3.99;78.72;100385.00;1699782;84;25635;-48
2023/12/27 08:22:58;;;;;;;8.65;2.27;;;;;;;4.00;78.54;100395.16;1699802;84;25652;-49
2023/12/27 08:25:25;;;;;;;8.80;2.17;;;;;;;3.99;78.54;100390.89;1699830;84;25580;-49
2023/12/27 08:27:53;;;;;;;6.95;2.47;;;;;;;4.02;78.63;100393.02;1699789;84;28371;-50
2023/12/27 08:30:22;;;;;;;4.53;1.95;;;;;;;4.03;78.84;100403.47;1699687;84;26017;-49
2023/12/27 08:32:49;;;;;;;6.03;2.10;;;;;;;4.05;79.11;100420.09;1699824;84;25245;-49
2023/12/27 08:35:15;;;;;;;8.95;2.30;;;;;;;4.05;78.89;100417.42;1673728;84;25975;-48
2023/12/27 08:37:41;;;;;;;9.35;2.60;;;;;;;4.06;79.14;100419.01;1699820;84;25578;-50
2023/12/27 08:40:10;;;;;;;10.72;2.37;;;;;;;4.07;79.16;100423.31;1699801;84;27205;-48
2023/12/27 08:42:36;;;;;;;10.23;2.33;;;;;;;4.08;79.31;100436.95;1673862;84;25718;-49
2023/12/27 08:45:05;;;;;;;8.83;2.15;;;;;;;4.07;79.52;100444.72;1648479;84;25652;-49
2023/12/27 08:47:32;;;;;;;6.92;2.17;;;;;;;4.06;79.65;100453.81;1699890;84;28382;-50
2023/12/27 08:49:59;;;;;;;9.38;2.00;;;;;;;4.10;79.59;100448.73;1699780;84;25439;-48
2023/12/27 08:52:27;;;;;;;8.55;3.15;;;;;;;4.09;79.71;100464.55;1699770;84;28361;-49
2023/12/27 08:54:54;;;;;;;8.50;2.20;;;;;;;4.08;79.93;100465.05;1648494;84;25620;-48
2023/12/27 08:57:20;;;;;;;7.08;2.50;;;;;;;4.10;80.09;100463.45;1684342;84;25585;-48
2023/12/27 08:59:46;;;;;;;5.87;2.20;;;;;;;4.10;80.21;100468.30;1644731;87;25724;-49
2023/12/27 09:02:13;;;;;;;7.33;2.67;;;;;;;4.11;80.18;100469.89;1684056;85;25586;-49
2023/12/27 09:04:41;;;;;;;9.35;2.60;;;;;;;4.11;80.03;100471.77;1635438;85;27699;-49
2023/12/27 09:07:07;;;;;;;7.00;2.02;;;;;;;4.10;80.18;100483.02;1662047;85;25815;-49
2023/12/27 09:09:33;;;;;;;9.40;2.10;;;;;;;4.09;80.19;100485.95;1685298;85;25677;-49
2023/12/27 09:12:01;;;;;;;10.28;2.80;;;;;;;4.08;80.25;100489.15;1684011;85;25628;-48
2023/12/27 09:14:28;;;;;;;5.62;2.17;;;;;;;4.08;80.50;100501.19;1684106;85;25668;-49
2023/12/27 09:16:55;;;;;;;10.03;2.45;;;;;;;4.06;80.30;100485.93;1684060;85;28341;-49
2023/12/27 09:19:21;;;;;;;5.90;2.70;;;;;;;4.05;80.30;100503.08;1683970;85;25463;-48
2023/12/27 09:21:49;;;;;;;9.68;2.75;;;;;;;4.02;80.24;100498.75;1684038;85;25573;-49
2023/12/27 09:24:15;;;;;;;11.35;2.70;;;;;;;3.99;80.37;100506.78;1685234;85;25628;-48
2023/12/27 09:26:42;;;;;;;9.23;2.75;;;;;;;3.99;80.67;100506.78;1684073;85;25648;-49
2023/12/27 09:29:10;;;;;;;8.88;2.90;;;;;;;3.98;80.59;100507.83;1662530;85;28242;-47
2023/12/27 09:31:38;;;;;;;8.93;2.95;;;;;;;3.97;80.59;100502.23;1684013;85;25593;-49
2023/12/27 09:34:04;;;;;;;12.15;3.20;;;;;;;3.97;80.67;100505.41;1684035;85;25415;-48
2023/12/27 09:36:31;;;;;;;7.17;3.05;;;;;;;3.97;80.94;100505.41;1662132;85;25598;-48
2023/12/27 09:39:01;;;;;;;10.13;3.20;;;;;;;3.98;80.99;100515.06;1662460;85;25780;-48
2023/12/27 09:41:27;;;;;;;8.85;2.70;;;;;;;3.97;80.95;100510.25;1684035;85;27345;-48
2023/12/27 09:43:57;;;;;;;11.35;2.98;;;;;;;3.98;80.99;100511.84;1683949;85;25798;-48
2023/12/27 09:46:26;;;;;;;12.10;2.50;;;;;;;3.98;81.01;100513.73;1660963;85;25608;-48
2023/12/27 09:48:55;;;;;;;9.60;3.25;;;;;;;3.99;81.08;100519.37;1684159;85;25628;-48
2023/12/27 09:51:25;;;;;;;12.50;2.70;;;;;;;3.98;80.92;100535.94;1662414;85;25528;-49
2023/12/27 09:53:53;;;;;;;15.63;2.80;;;;;;;3.96;80.98;100522.02;1685452;85;27287;-48
2023/12/27 09:56:23;;;;;;;6.83;3.00;;;;;;;3.97;81.08;100534.86;1655017;85;25509;-52
2023/12/27 09:58:56;;;;;;;6.08;2.70;;;;;;;3.97;81.16;100531.67;1660733;85;25664;-48
2023/12/27 10:01:27;;;;;;;7.87;2.87;;;;;;;3.96;81.12;100540.75;1672624;85;26180;-49
2023/12/27 10:04:08;;;;;;;11.12;3.47;;;;;;;3.96;81.25;100530.59;1672638;85;25472;-50
2023/12/27 10:06:43;;;;;;;18.75;3.25;;;;;;;3.97;81.13;100520.96;1672495;85;27332;-50
2023/12/27 10:09:11;;;;;;;9.88;2.85;;;;;;;3.96;81.13;100522.55;1672510;85;25703;-49
2023/12/27 10:11:42;;;;;;;7.25;2.65;;;;;;;3.99;81.22;100514.81;1672797;85;25435;-48
2023/12/27 10:14:13;;;;;;;9.48;2.72;;;;;;;4.01;81.29;100532.75;1672576;85;26164;-52
2023/12/27 10:16:40;;;;;;;8.35;2.90;;;;;;;4.06;81.36;100538.13;1638305;85;25668;-49
2023/12/27 10:19:07;;;;;;;5.60;2.77;;;;;;;4.09;80.87;100529.59;1628938;85;27461;-49
2023/12/27 10:21:43;;;;;;;8.18;2.52;;;;;;;4.11;80.96;100528.79;1660820;85;25428;-49
2023/12/27 10:24:12;;;;;;;4.42;2.27;;;;;;;4.12;80.08;100536.31;1660746;85;25542;-51
2023/12/27 10:26:40;;;;;;;12.23;2.77;;;;;;;4.15;80.48;100543.80;1672632;85;26049;-48
2023/12/27 10:29:07;;;;;;;8.98;3.15;;;;;;;4.18;80.19;100541.95;1672734;85;25586;-48
2023/12/27 10:31:37;;;;;;;7.47;2.62;;;;;;;4.21;79.68;100540.63;1661019;85;27332;-49
2023/12/27 10:34:05;;;;;;;8.05;2.50;;;;;;;4.24;79.82;100536.08;1672761;85;25816;-48
2023/12/27 10:36:38;;;;;;;6.12;2.50;;;;;;;4.26;79.60;100524.05;1672741;85;25652;-48
2023/12/27 10:39:07;;;;;;;6.85;2.15;;;;;;;4.30;79.69;100541.73;1672580;85;26023;-48
2023/12/27 10:41:39;;;;;;;11.53;2.87;;;;;;;4.34;79.87;100542.02;1672703;85;25646;-49
2023/12/27 10:44:05;;;;;;;11.30;3.33;;;;;;;4.37;79.53;100547.66;1660729;85;27343;-49
2023/12/27 10:46:34;;;;;;;11.45;2.33;;;;;;;4.39;79.23;100543.38;1618360;87;25695;-48
2023/12/27 10:49:04;;;;;;;9.40;2.60;;;;;;;4.42;79.08;100542.32;1623285;87;25478;-48
2023/12/27 10:51:38;;;;;;;10.85;3.37;;;;;;;4.46;79.14;100560.84;1672134;85;25614;-48
2023/12/27 10:54:03;;;;;;;11.55;2.42;;;;;;;4.49;79.20;100549.61;1657639;85;25592;-48
2023/12/27 10:56:39;;;;;;;8.40;2.22;;;;;;;4.51;78.61;100555.22;1672210;84;27737;-49
2023/12/27 10:59:10;;;;;;;9.10;2.15;;;;;;;4.51;78.10;100561.38;1672125;85;25893;-48
2023/12/27 11:01:41;;;;;;;9.58;2.77;;;;;;;4.55;78.32;100563.82;1648780;85;25576;-49
2023/12/27 11:04:11;;;;;;;7.58;2.37;;;;;;;4.57;78.37;100564.36;1672154;85;25713;-49
2023/12/27 11:06:40;;;;;;;8.78;2.67;;;;;;;4.61;78.55;100564.63;1672197;85;25687;-48
2023/12/27 11:09:09;;;;;;;;;;;;;;;4.63;78.21;100566.00;1651285;85;27713;-49
2023/12/27 11:11:39;;;;;;;8.00;2.67;;;;;;;4.64;77.39;100563.58;1671588;85;25659;-47
2023/12/27 11:14:11;;;;;;;;;;;;;;;4.65;77.28;100560.38;1674654;85;25497;-47
2023/12/27 11:16:42;;;;;;;7.87;2.08;;;;;;;4.65;77.04;100577.80;1671714;85;25643;-48
2023/12/27 11:19:08;;;;;;;5.58;2.33;;;;;;;4.62;77.11;100579.11;1648984;85;25629;-49
2023/12/27 11:21:37;;;;;;;6.85;2.00;;;;;;;4.61;76.89;100572.13;1672090;85;27395;-48
2023/12/27 11:24:07;;;;;;;11.25;2.92;;;;;;;4.64;76.81;100568.93;1672309;85;25486;-51
2023/12/27 11:26:36;;;;;;;8.80;3.17;;;;;;;4.65;77.03;100584.50;1672178;85;25644;-49
2023/12/27 11:29:11;;;;;;;9.70;2.25;;;;;;;4.65;76.89;100587.97;1672195;85;25704;-48
2023/12/27 11:31:42;;;;;;;7.72;2.12;;;;;;;4.64;76.40;100586.89;1672209;85;25488;-50
2023/12/27 11:34:12;;;;;;;13.72;2.70;;;;;;;4.64;76.50;100579.66;1672125;85;27327;-48
2023/12/27 11:36:39;;;;;;;8.60;2.40;;;;;;;4.67;76.50;100589.85;1671423;85;25589;-49
2023/12/27 11:39:27;;;;;;;9.38;2.17;;;;;;;4.70;76.44;100597.09;1672138;85;25626;-48